createdAt,value
2022-07-28T00:00:26.511Z,15.00
2022-07-28T00:03:28.671Z,15.10
2022-07-28T00:06:30.824Z,15.10
2022-07-28T00:09:32.915Z,15.20
2022-07-28T00:12:35.027Z,15.20
2022-07-28T00:15:37.121Z,15.20
2022-07-28T00:18:39.620Z,15.20
2022-07-28T00:21:41.733Z,15.20
2022-07-28T00:24:43.940Z,15.20
2022-07-28T00:27:46.015Z,15.20
2022-07-28T00:30:48.125Z,15.20
2022-07-28T00:33:50.469Z,15.20
2022-07-28T00:36:52.548Z,15.20
2022-07-28T00:39:54.647Z,15.20
2022-07-28T00:42:56.716Z,15.20
2022-07-28T00:45:58.847Z,15.20
2022-07-28T00:49:01.081Z,15.20
2022-07-28T00:52:07.692Z,15.10
2022-07-28T00:55:10.204Z,15.10
2022-07-28T00:58:12.555Z,15.20
2022-07-28T01:01:17.720Z,15.20
2022-07-28T01:04:19.989Z,15.20
2022-07-28T01:07:42.035Z,15.10
2022-07-28T01:11:11.006Z,15.10
2022-07-28T01:14:38.871Z,15.00
2022-07-28T01:17:58.224Z,15.00
2022-07-28T01:21:08.196Z,15.00
2022-07-28T01:24:31.105Z,15.10
2022-07-28T01:28:08.063Z,15.10
2022-07-28T01:31:10.264Z,15.00
2022-07-28T01:34:20.082Z,14.80
2022-07-28T01:37:26.279Z,14.80
2022-07-28T01:40:32.731Z,14.50
2022-07-28T01:43:38.027Z,14.30
2022-07-28T01:46:40.226Z,14.10
2022-07-28T01:49:42.381Z,14.10
2022-07-28T01:52:46.183Z,14.20
2022-07-28T01:55:48.292Z,14.10
2022-07-28T01:58:51.367Z,14.10
2022-07-28T02:01:53.556Z,14.20
2022-07-28T02:04:57.178Z,14.30
2022-07-28T02:07:59.651Z,14.40
2022-07-28T02:11:20.456Z,14.50
2022-07-28T02:14:24.544Z,14.50
2022-07-28T02:17:31.020Z,14.70
2022-07-28T02:20:33.107Z,14.70
2022-07-28T02:23:35.291Z,14.80
2022-07-28T02:26:41.215Z,14.80
2022-07-28T02:29:51.413Z,14.70
2022-07-28T02:33:03.405Z,14.80
2022-07-28T02:36:08.023Z,14.80
2022-07-28T02:39:22.378Z,14.90
2022-07-28T02:42:27.696Z,14.80
2022-07-28T02:45:30.147Z,14.80
2022-07-28T02:48:33.576Z,14.80
2022-07-28T02:51:35.664Z,14.80
2022-07-28T02:54:37.895Z,14.80
2022-07-28T02:57:40.737Z,14.80
2022-07-28T03:00:42.852Z,14.60
2022-07-28T03:03:46.601Z,14.60
2022-07-28T03:06:48.828Z,14.60
2022-07-28T03:09:51.428Z,14.50
2022-07-28T03:12:55.188Z,14.50
2022-07-28T03:15:57.284Z,14.50
2022-07-28T03:18:59.377Z,14.50
2022-07-28T03:22:01.612Z,14.50
2022-07-28T03:25:17.303Z,14.50
2022-07-28T03:28:20.680Z,14.60
2022-07-28T03:31:22.861Z,14.50
2022-07-28T03:34:25.163Z,14.50
2022-07-28T03:38:08.723Z,14.50
2022-07-28T03:41:10.819Z,14.30
2022-07-28T03:44:13.171Z,14.20
2022-07-28T03:47:15.690Z,14.30
2022-07-28T03:50:18.214Z,14.30
2022-07-28T03:53:22.935Z,14.30
2022-07-28T03:56:25.145Z,14.10
2022-07-28T03:59:27.273Z,14.00
2022-07-28T04:02:29.456Z,14.00
2022-07-28T04:05:31.595Z,14.20
2022-07-28T04:08:33.896Z,14.30
2022-07-28T04:11:35.992Z,14.30
2022-07-28T04:14:38.084Z,14.30
2022-07-28T04:17:40.763Z,14.30
2022-07-28T04:20:42.876Z,14.40
2022-07-28T04:23:44.990Z,14.40
2022-07-28T04:26:47.141Z,14.20
2022-07-28T04:29:49.244Z,14.20
2022-07-28T04:32:52.943Z,14.30
2022-07-28T04:35:55.027Z,14.30
2022-07-28T04:38:59.387Z,14.20
2022-07-28T04:42:02.008Z,14.20
2022-07-28T04:45:08.199Z,14.20
2022-07-28T04:48:12.373Z,14.30
2022-07-28T04:51:14.574Z,14.20
2022-07-28T04:54:17.413Z,14.20
2022-07-28T04:57:20.755Z,14.20
2022-07-28T05:00:24.124Z,14.10
2022-07-28T05:03:26.235Z,14.10
2022-07-28T05:06:28.321Z,14.10
2022-07-28T05:09:31.023Z,14.00
2022-07-28T05:12:33.171Z,14.10
2022-07-28T05:15:35.335Z,14.00
2022-07-28T05:18:37.446Z,14.00
2022-07-28T05:21:39.588Z,14.10
2022-07-28T05:24:41.675Z,14.10
2022-07-28T05:27:45.169Z,14.10
2022-07-28T05:30:47.247Z,14.10
2022-07-28T05:33:49.540Z,14.20
2022-07-28T05:36:54.373Z,14.20
2022-07-28T05:39:56.471Z,14.20
2022-07-28T05:42:58.539Z,14.30
2022-07-28T05:46:00.715Z,14.20
2022-07-28T05:49:03.464Z,14.20
2022-07-28T05:52:05.943Z,14.20
2022-07-28T05:55:08.645Z,14.30
2022-07-28T05:58:10.774Z,14.30
2022-07-28T06:01:12.875Z,14.30
2022-07-28T06:04:30.864Z,14.10
2022-07-28T06:07:43.528Z,14.20
2022-07-28T06:11:02.283Z,14.10
2022-07-28T06:14:04.371Z,14.20
2022-07-28T06:17:06.604Z,14.10
2022-07-28T06:20:09.900Z,14.10
2022-07-28T06:23:12.033Z,14.10
2022-07-28T06:26:14.185Z,14.10
2022-07-28T06:29:16.351Z,14.00
2022-07-28T06:32:18.456Z,14.10
2022-07-28T06:35:20.611Z,14.00
2022-07-28T06:38:22.745Z,14.00
2022-07-28T06:41:24.858Z,14.20
2022-07-28T06:44:48.322Z,14.20
2022-07-28T06:47:52.714Z,14.30
2022-07-28T06:50:56.552Z,14.30
2022-07-28T06:53:58.949Z,14.50
2022-07-28T06:57:01.906Z,14.50
2022-07-28T07:00:07.255Z,14.50
2022-07-28T07:03:09.952Z,14.60
2022-07-28T07:06:12.254Z,14.70
2022-07-28T07:09:14.409Z,14.60
2022-07-28T07:12:16.556Z,14.60
2022-07-28T07:15:18.685Z,14.60
2022-07-28T07:18:20.854Z,14.60
2022-07-28T07:21:22.948Z,14.60
2022-07-28T07:24:28.013Z,14.60
2022-07-28T07:27:30.498Z,14.60
2022-07-28T07:30:33.058Z,14.60
2022-07-28T07:33:35.169Z,14.50
2022-07-28T07:36:37.292Z,14.40
2022-07-28T07:39:39.670Z,14.40
2022-07-28T07:42:41.747Z,14.40
2022-07-28T07:45:43.885Z,14.40
2022-07-28T07:48:46.089Z,14.40
2022-07-28T07:51:48.233Z,14.40
2022-07-28T07:54:50.368Z,14.30
2022-07-28T07:57:52.526Z,14.30
2022-07-28T08:00:55.989Z,14.30
2022-07-28T08:03:59.682Z,14.30
2022-07-28T08:07:03.111Z,14.40
2022-07-28T08:10:06.588Z,14.40
2022-07-28T08:13:08.869Z,14.20
2022-07-28T08:16:11.021Z,14.20
2022-07-28T08:19:13.274Z,14.20
2022-07-28T08:22:16.661Z,14.30
2022-07-28T08:25:19.016Z,14.20
2022-07-28T08:28:21.141Z,14.20
2022-07-28T08:31:23.653Z,14.30
2022-07-28T08:34:31.260Z,14.20
2022-07-28T08:37:36.553Z,14.10
2022-07-28T08:40:39.045Z,14.20
2022-07-28T08:43:42.792Z,14.10
2022-07-28T08:46:45.130Z,14.10
2022-07-28T08:49:48.653Z,14.10
2022-07-28T08:52:54.103Z,14.20
2022-07-28T08:55:59.718Z,14.30
2022-07-28T08:59:02.778Z,14.20
2022-07-28T09:02:05.112Z,14.20
2022-07-28T09:05:08.159Z,14.30
2022-07-28T09:08:11.600Z,14.30
2022-07-28T09:11:13.735Z,14.30
2022-07-28T09:14:16.246Z,14.30
2022-07-28T09:17:19.032Z,14.30
2022-07-28T09:20:21.176Z,14.10
2022-07-28T09:23:41.912Z,14.20
2022-07-28T09:27:08.196Z,14.40
2022-07-28T09:30:10.943Z,14.80
2022-07-28T09:33:43.014Z,15.00
2022-07-28T09:36:45.988Z,15.00
2022-07-28T09:39:49.248Z,15.10
2022-07-28T09:42:55.353Z,15.10
2022-07-28T09:46:20.856Z,15.20
2022-07-28T09:49:47.063Z,14.90
2022-07-28T09:52:49.220Z,14.90
2022-07-28T09:55:59.316Z,15.20
2022-07-28T09:59:03.444Z,15.40
2022-07-28T10:02:05.613Z,15.40
2022-07-28T10:05:10.005Z,15.30
2022-07-28T10:08:12.099Z,15.40
2022-07-28T10:11:20.933Z,15.50
2022-07-28T10:14:34.049Z,15.70
2022-07-28T10:17:36.127Z,15.60
2022-07-28T10:20:38.325Z,15.60
2022-07-28T10:23:40.494Z,15.70
2022-07-28T10:26:45.982Z,15.60
2022-07-28T10:29:50.073Z,15.70
2022-07-28T10:32:52.148Z,16.10
2022-07-28T10:35:55.241Z,16.10
2022-07-28T10:39:05.357Z,16.40
2022-07-28T10:42:13.581Z,16.40
2022-07-28T10:45:15.656Z,16.30
2022-07-28T10:48:17.800Z,16.20
2022-07-28T10:51:21.484Z,16.10
2022-07-28T10:54:28.341Z,16.10
2022-07-28T10:57:30.978Z,16.10
2022-07-28T11:00:46.874Z,16.00
2022-07-28T11:03:56.210Z,15.80
2022-07-28T11:07:15.004Z,15.70
2022-07-28T11:10:18.152Z,15.70
2022-07-28T11:13:28.909Z,15.60
2022-07-28T11:16:36.047Z,15.60
2022-07-28T11:20:24.968Z,15.50
2022-07-28T11:23:47.713Z,15.50
2022-07-28T11:26:51.400Z,15.60
2022-07-28T11:29:53.484Z,16.00
2022-07-28T11:32:55.568Z,16.20
2022-07-28T11:35:58.452Z,16.60
2022-07-28T11:39:26.695Z,16.70
2022-07-28T11:42:30.683Z,16.70
2022-07-28T11:45:38.426Z,16.90
2022-07-28T11:48:45.316Z,17.00
2022-07-28T11:52:11.344Z,16.80
2022-07-28T11:55:13.441Z,17.00
2022-07-28T11:58:27.843Z,16.70
2022-07-28T12:01:31.609Z,16.40
2022-07-28T12:04:34.502Z,16.80
2022-07-28T12:07:48.713Z,16.80
2022-07-28T12:10:55.749Z,16.70
2022-07-28T12:14:05.987Z,16.50
2022-07-28T12:17:08.242Z,16.50
2022-07-28T12:20:14.009Z,16.60
2022-07-28T12:23:16.415Z,16.40
2022-07-28T12:26:32.327Z,16.40
2022-07-28T12:29:36.699Z,16.50
2022-07-28T12:32:38.799Z,16.60
2022-07-28T12:35:40.972Z,16.60
2022-07-28T12:38:43.084Z,16.50
2022-07-28T12:41:45.181Z,16.50
2022-07-28T12:44:48.686Z,16.80
2022-07-28T12:47:50.889Z,16.90
2022-07-28T12:50:53.054Z,16.90
2022-07-28T12:53:55.924Z,16.80
2022-07-28T12:56:58.044Z,17.10
2022-07-28T13:00:07.251Z,17.00
2022-07-28T13:03:24.246Z,16.80
2022-07-28T13:06:26.356Z,16.90
2022-07-28T13:09:32.595Z,17.10
2022-07-28T13:12:35.299Z,17.10
2022-07-28T13:15:37.388Z,17.30
2022-07-28T13:18:42.943Z,17.40
2022-07-28T13:21:57.009Z,17.50
2022-07-28T13:25:01.846Z,17.90
2022-07-28T13:28:04.247Z,17.70
2022-07-28T13:31:06.450Z,17.90
2022-07-28T13:34:09.916Z,18.10
2022-07-28T13:37:12.236Z,18.20
2022-07-28T13:40:14.304Z,18.40
2022-07-28T13:43:16.398Z,18.60
2022-07-28T13:46:19.008Z,18.80
2022-07-28T13:49:21.321Z,19.10
2022-07-28T13:52:33.224Z,18.90
2022-07-28T13:55:38.002Z,18.80
2022-07-28T13:58:40.147Z,18.80
2022-07-28T14:01:44.019Z,18.80
2022-07-28T14:04:52.083Z,18.90
2022-07-28T14:07:54.245Z,18.60
2022-07-28T14:10:59.020Z,18.50
2022-07-28T14:14:01.161Z,18.20
2022-07-28T14:17:14.652Z,18.10
2022-07-28T14:20:25.504Z,18.10
2022-07-28T14:23:27.615Z,18.20
2022-07-28T14:26:36.904Z,18.20
2022-07-28T14:29:39.708Z,18.00
2022-07-28T14:32:41.798Z,18.10
2022-07-28T14:35:44.657Z,17.80
2022-07-28T14:38:53.635Z,17.60
2022-07-28T14:41:56.516Z,17.70
2022-07-28T14:45:02.599Z,17.70
2022-07-28T14:48:05.210Z,17.60
2022-07-28T14:51:07.327Z,17.40
2022-07-28T14:54:09.439Z,17.40
2022-07-28T14:57:11.837Z,17.30
2022-07-28T15:00:15.468Z,17.40
2022-07-28T15:03:17.660Z,17.40
2022-07-28T15:06:19.801Z,17.50
2022-07-28T15:09:22.132Z,17.50
2022-07-28T15:12:24.251Z,17.40
2022-07-28T15:15:29.135Z,17.30
2022-07-28T15:18:31.297Z,17.20
2022-07-28T15:21:36.488Z,17.20
2022-07-28T15:24:38.826Z,17.30
2022-07-28T15:27:45.665Z,17.30
2022-07-28T15:30:52.666Z,17.40
2022-07-28T15:33:57.965Z,17.40
2022-07-28T15:37:01.035Z,17.30
2022-07-28T15:40:03.572Z,17.40
2022-07-28T15:43:05.664Z,17.30
2022-07-28T15:46:10.524Z,17.20
2022-07-28T15:49:12.959Z,17.30
2022-07-28T15:52:15.152Z,17.40
2022-07-28T15:55:17.361Z,17.30
2022-07-28T15:58:23.048Z,17.50
2022-07-28T16:01:26.692Z,17.40
2022-07-28T16:04:28.956Z,17.30
2022-07-28T16:07:33.309Z,17.30
2022-07-28T16:10:35.434Z,17.30
2022-07-28T16:13:38.806Z,17.40
2022-07-28T16:16:41.219Z,17.40
2022-07-28T16:19:49.435Z,17.50
2022-07-28T16:22:52.515Z,17.50
2022-07-28T16:25:54.605Z,17.30
2022-07-28T16:28:56.722Z,17.40
2022-07-28T16:31:58.811Z,17.40
2022-07-28T16:35:00.899Z,17.50
2022-07-28T16:38:04.236Z,17.50
2022-07-28T16:41:06.331Z,17.50
2022-07-28T16:44:09.414Z,17.40
2022-07-28T16:47:12.362Z,17.40
2022-07-28T16:50:16.221Z,17.30
2022-07-28T16:53:20.561Z,17.40
2022-07-28T16:56:22.664Z,17.40
2022-07-28T16:59:24.944Z,17.40
2022-07-28T17:02:47.014Z,17.40
2022-07-28T17:05:49.107Z,17.40
2022-07-28T17:08:51.233Z,17.30
2022-07-28T17:11:53.324Z,17.40
2022-07-28T17:14:55.423Z,17.40
2022-07-28T17:17:58.564Z,17.40
2022-07-28T17:21:01.552Z,17.40
2022-07-28T17:24:04.262Z,17.30
2022-07-28T17:30:30.514Z,17.30
2022-07-28T17:33:32.933Z,17.30
2022-07-28T17:36:35.652Z,17.30
2022-07-28T17:39:37.779Z,17.30
2022-07-28T17:42:39.947Z,17.40
2022-07-28T17:45:42.189Z,17.40
2022-07-28T17:48:44.337Z,17.50
2022-07-28T17:51:47.635Z,17.60
2022-07-28T17:55:08.503Z,17.60
2022-07-28T17:58:22.135Z,17.60
2022-07-28T18:01:29.170Z,17.50
2022-07-28T18:04:31.254Z,17.50
2022-07-28T18:07:49.063Z,17.50
2022-07-28T18:10:54.301Z,17.50
2022-07-28T18:14:04.560Z,17.50
2022-07-28T18:17:07.269Z,17.50
2022-07-28T18:20:10.205Z,17.60
2022-07-28T18:23:12.728Z,17.60
2022-07-28T18:26:14.844Z,17.50
2022-07-28T18:29:17.787Z,17.40
2022-07-28T18:32:19.880Z,17.50
2022-07-28T18:35:22.256Z,17.40
2022-07-28T18:38:24.354Z,17.40
2022-07-28T18:41:26.579Z,17.30
2022-07-28T18:44:28.695Z,17.20
2022-07-28T18:47:30.873Z,17.10
2022-07-28T18:50:32.970Z,17.10
2022-07-28T18:53:36.139Z,17.00
2022-07-28T18:56:38.227Z,17.00
2022-07-28T18:59:45.480Z,17.00
2022-07-28T19:02:55.492Z,16.90
2022-07-28T19:05:58.265Z,17.00
2022-07-28T19:09:00.382Z,16.80
2022-07-28T19:12:02.574Z,16.70
2022-07-28T19:15:05.653Z,16.50
2022-07-28T19:18:10.431Z,16.40
2022-07-28T19:21:13.684Z,16.30
2022-07-28T19:24:16.398Z,16.30
2022-07-28T19:27:19.156Z,16.20
2022-07-28T19:30:21.299Z,16.20
2022-07-28T19:33:24.506Z,16.20
2022-07-28T19:36:27.552Z,16.10
2022-07-28T19:39:34.032Z,16.10
2022-07-28T19:42:36.168Z,16.00
2022-07-28T19:45:38.312Z,16.00
2022-07-28T19:48:40.437Z,15.90
2022-07-28T19:51:42.590Z,15.90
2022-07-28T19:54:44.685Z,16.00
2022-07-28T19:57:59.089Z,16.00
2022-07-28T20:01:01.508Z,16.00
2022-07-28T20:04:05.466Z,16.00
2022-07-28T20:07:08.056Z,15.80
2022-07-28T20:10:10.157Z,15.70
2022-07-28T20:13:12.266Z,15.60
2022-07-28T20:16:14.455Z,15.60
2022-07-28T20:19:16.612Z,15.60
2022-07-28T20:22:18.751Z,15.60
2022-07-28T20:25:20.875Z,15.60
2022-07-28T20:28:23.228Z,15.70
2022-07-28T20:31:25.609Z,15.60
2022-07-28T20:34:27.839Z,15.60
2022-07-28T20:37:35.886Z,15.50
2022-07-28T20:40:39.564Z,15.50
2022-07-28T20:43:41.652Z,15.60
2022-07-28T20:46:43.784Z,15.50
2022-07-28T20:49:45.863Z,15.50
2022-07-28T20:52:48.727Z,15.30
2022-07-28T20:55:50.812Z,15.30
2022-07-28T20:58:52.906Z,15.30
2022-07-28T21:01:55.380Z,15.40
2022-07-28T21:04:57.554Z,15.50
2022-07-28T21:08:05.707Z,15.40
2022-07-28T21:11:08.958Z,15.40
2022-07-28T21:14:11.091Z,15.30
2022-07-28T21:17:13.203Z,15.30
2022-07-28T21:20:15.283Z,15.30
2022-07-28T21:23:18.888Z,15.40
2022-07-28T21:26:21.005Z,15.40
2022-07-28T21:32:23.984Z,15.30
2022-07-28T21:35:26.135Z,15.30
2022-07-28T21:38:28.203Z,15.30
2022-07-28T21:41:36.526Z,15.40
2022-07-28T21:44:39.097Z,15.40
2022-07-28T21:47:41.553Z,15.40
2022-07-28T21:50:44.079Z,15.50
2022-07-28T21:53:49.562Z,15.40
2022-07-28T21:56:51.642Z,15.30
2022-07-28T21:59:54.268Z,15.20
2022-07-28T22:02:56.416Z,15.30
2022-07-28T22:06:02.419Z,15.30
2022-07-28T22:09:04.663Z,15.30
2022-07-28T22:12:07.501Z,15.20
2022-07-28T22:15:10.079Z,15.20
2022-07-28T22:18:16.678Z,15.30
2022-07-28T22:21:19.087Z,15.30
2022-07-28T22:24:21.241Z,15.30
2022-07-28T22:27:23.359Z,15.40
2022-07-28T22:30:25.440Z,15.50
2022-07-28T22:33:27.563Z,15.40
2022-07-28T22:36:29.635Z,15.30
2022-07-28T22:39:32.223Z,15.30
2022-07-28T22:42:34.304Z,15.30
2022-07-28T22:45:49.991Z,15.30
2022-07-28T22:48:53.295Z,15.30
2022-07-28T22:51:55.414Z,15.30
2022-07-28T22:58:17.198Z,15.30
2022-07-28T23:01:19.490Z,15.30
2022-07-28T23:04:22.406Z,15.40
2022-07-28T23:07:53.042Z,15.40
2022-07-28T23:10:48.820Z,15.40
2022-07-28T23:13:50.944Z,15.30
2022-07-28T23:16:53.692Z,15.30
2022-07-28T23:19:58.692Z,15.30
2022-07-28T23:23:00.870Z,15.30
2022-07-28T23:26:03.043Z,15.30
2022-07-28T23:29:05.207Z,15.20
2022-07-28T23:32:13.852Z,15.10
2022-07-28T23:35:19.348Z,15.10
2022-07-28T23:38:21.543Z,15.10
2022-07-28T23:41:24.061Z,15.00
2022-07-28T23:44:26.213Z,15.10
2022-07-28T23:47:28.478Z,15.10
2022-07-28T23:50:30.602Z,15.10
2022-07-28T23:53:32.806Z,15.00
2022-07-28T23:56:34.945Z,14.90
2022-07-28T23:59:37.079Z,14.70
